createdAt,value
2022-12-25T00:01:03.949Z,8.26
2022-12-25T00:03:31.129Z,8.28
2022-12-25T00:05:59.224Z,8.25
2022-12-25T00:08:25.725Z,8.26
2022-12-25T00:11:06.700Z,8.27
2022-12-25T00:13:33.635Z,8.23
2022-12-25T00:16:00.317Z,8.17
2022-12-25T00:18:27.209Z,8.23
2022-12-25T00:21:02.062Z,8.29
2022-12-25T00:23:28.807Z,8.29
2022-12-25T00:25:55.613Z,8.31
2022-12-25T00:28:23.159Z,8.30
2022-12-25T00:30:50.707Z,8.15
2022-12-25T00:33:17.618Z,8.13
2022-12-25T00:35:44.146Z,8.18
2022-12-25T00:38:10.728Z,8.17
2022-12-25T00:40:44.284Z,8.15
2022-12-25T00:43:11.073Z,8.13
2022-12-25T00:45:37.635Z,8.11
2022-12-25T00:48:04.313Z,8.12
2022-12-25T00:50:30.821Z,8.14
2022-12-25T00:52:57.237Z,8.14
2022-12-25T00:55:23.656Z,8.13
2022-12-25T00:57:50.066Z,8.14
2022-12-25T01:00:16.677Z,8.13
2022-12-25T01:02:43.179Z,8.08
2022-12-25T01:05:09.851Z,8.05
2022-12-25T01:07:36.240Z,8.07
2022-12-25T01:10:21.197Z,8.09
2022-12-25T01:12:47.612Z,8.11
2022-12-25T01:15:14.503Z,8.11
2022-12-25T01:17:42.472Z,8.12
2022-12-25T01:20:09.891Z,8.14
2022-12-25T01:22:36.417Z,8.10
2022-12-25T01:25:03.096Z,8.06
2022-12-25T01:27:29.497Z,8.02
2022-12-25T01:29:55.883Z,8.00
2022-12-25T01:32:22.342Z,8.00
2022-12-25T01:34:53.878Z,8.01
2022-12-25T01:37:24.651Z,8.02
2022-12-25T01:39:51.293Z,8.03
2022-12-25T01:42:19.953Z,8.04
2022-12-25T01:44:46.289Z,8.08
2022-12-25T01:47:13.819Z,8.09
2022-12-25T01:49:43.003Z,8.08
2022-12-25T01:52:27.621Z,8.11
2022-12-25T01:54:58.603Z,8.07
2022-12-25T01:57:28.744Z,8.11
2022-12-25T01:59:57.653Z,8.10
2022-12-25T02:02:24.838Z,8.08
2022-12-25T02:05:01.282Z,8.04
2022-12-25T02:07:29.534Z,8.02
2022-12-25T02:09:55.924Z,8.01
2022-12-25T02:12:25.953Z,8.01
2022-12-25T02:15:04.671Z,7.98
2022-12-25T02:17:43.975Z,7.89
2022-12-25T02:20:39.856Z,7.85
2022-12-25T02:23:29.555Z,7.85
2022-12-25T02:26:17.356Z,7.93
2022-12-25T02:29:11.476Z,7.97
2022-12-25T02:31:54.215Z,8.01
2022-12-25T02:34:32.669Z,8.04
2022-12-25T02:37:06.690Z,8.06
2022-12-25T02:39:57.736Z,8.08
2022-12-25T02:42:58.093Z,8.11
2022-12-25T02:45:54.565Z,8.09
2022-12-25T02:48:43.043Z,8.01
2022-12-25T02:51:32.228Z,7.97
2022-12-25T02:54:20.007Z,7.94
2022-12-25T02:57:07.177Z,7.90
2022-12-25T02:59:56.981Z,7.88
2022-12-25T03:02:43.951Z,7.86
2022-12-25T03:05:33.812Z,7.86
2022-12-25T03:08:04.943Z,7.88
2022-12-25T03:10:52.475Z,7.95
2022-12-25T03:13:21.854Z,7.97
2022-12-25T03:16:08.081Z,7.99
2022-12-25T03:18:35.292Z,8.01
2022-12-25T03:21:21.071Z,8.03
2022-12-25T03:24:12.721Z,8.00
2022-12-25T03:26:57.284Z,7.99
2022-12-25T03:29:47.383Z,7.95
2022-12-25T03:32:28.194Z,7.95
2022-12-25T03:35:25.666Z,7.95
2022-12-25T03:38:32.043Z,8.02
2022-12-25T03:41:32.227Z,8.07
2022-12-25T03:44:42.302Z,8.11
2022-12-25T03:47:36.576Z,8.04
2022-12-25T03:50:46.389Z,8.03
2022-12-25T03:53:37.626Z,7.99
2022-12-25T03:56:23.877Z,7.97
2022-12-25T03:59:11.641Z,7.95
2022-12-25T04:01:56.521Z,7.95
2022-12-25T04:04:41.733Z,8.02
2022-12-25T04:07:26.326Z,8.01
2022-12-25T04:10:11.071Z,8.00
2022-12-25T04:12:55.863Z,8.03
2022-12-25T04:15:41.135Z,8.10
2022-12-25T04:18:26.302Z,8.12
2022-12-25T04:21:10.916Z,8.13
2022-12-25T04:23:56.274Z,8.12
2022-12-25T04:26:41.128Z,8.08
2022-12-25T04:29:26.191Z,8.08
2022-12-25T04:32:10.904Z,8.06
2022-12-25T04:34:55.689Z,8.04
2022-12-25T04:37:22.090Z,8.02
2022-12-25T04:39:48.539Z,8.03
2022-12-25T04:42:16.001Z,8.00
2022-12-25T04:44:42.421Z,7.94
2022-12-25T04:47:11.472Z,8.00
2022-12-25T04:49:38.635Z,8.00
2022-12-25T04:52:05.139Z,8.01
2022-12-25T04:54:31.596Z,8.03
2022-12-25T04:56:58.029Z,8.06
2022-12-25T04:59:24.503Z,8.09
2022-12-25T05:01:51.074Z,8.07
2022-12-25T05:04:17.546Z,8.07
2022-12-25T05:06:43.966Z,8.07
2022-12-25T05:09:10.673Z,8.07
2022-12-25T05:11:37.150Z,8.02
2022-12-25T05:14:03.588Z,8.01
2022-12-25T05:16:30.111Z,7.96
2022-12-25T05:18:57.483Z,7.95
2022-12-25T05:21:23.911Z,7.94
2022-12-25T05:23:53.606Z,7.91
2022-12-25T05:26:23.950Z,7.99
2022-12-25T05:28:50.962Z,8.05
2022-12-25T05:31:18.223Z,8.07
2022-12-25T05:33:44.683Z,8.05
2022-12-25T05:36:12.741Z,8.02
2022-12-25T05:38:39.229Z,8.02
2022-12-25T05:41:06.010Z,8.08
2022-12-25T05:43:32.616Z,8.12
2022-12-25T05:46:04.860Z,8.09
2022-12-25T05:48:31.359Z,8.01
2022-12-25T05:50:57.771Z,8.02
2022-12-25T05:53:24.220Z,8.02
2022-12-25T05:55:50.652Z,8.02
2022-12-25T05:58:17.132Z,8.06
2022-12-25T06:00:44.142Z,8.10
2022-12-25T06:03:10.745Z,8.11
2022-12-25T06:05:38.959Z,8.09
2022-12-25T06:08:06.075Z,8.06
2022-12-25T06:10:32.479Z,7.97
2022-12-25T06:12:58.927Z,7.96
2022-12-25T06:15:25.304Z,8.02
2022-12-25T06:17:51.729Z,8.10
2022-12-25T06:20:18.387Z,8.06
2022-12-25T06:22:44.849Z,8.00
2022-12-25T06:25:11.471Z,8.00
2022-12-25T06:27:37.913Z,8.02
2022-12-25T06:30:05.424Z,8.11
2022-12-25T06:32:31.821Z,8.10
2022-12-25T06:34:58.230Z,8.05
2022-12-25T06:37:24.677Z,8.02
2022-12-25T06:39:51.080Z,8.00
2022-12-25T06:42:17.468Z,8.07
2022-12-25T06:44:44.681Z,8.07
2022-12-25T06:47:11.104Z,8.04
2022-12-25T06:49:37.533Z,8.02
2022-12-25T06:52:03.991Z,8.05
2022-12-25T06:54:30.380Z,8.02
2022-12-25T06:56:56.961Z,8.04
2022-12-25T06:59:23.464Z,8.05
2022-12-25T07:01:53.504Z,8.03
2022-12-25T07:04:22.857Z,8.03
2022-12-25T07:06:49.293Z,8.05
2022-12-25T07:09:15.716Z,8.08
2022-12-25T07:11:42.137Z,8.06
2022-12-25T07:14:23.384Z,8.03
2022-12-25T07:16:53.609Z,8.05
2022-12-25T07:19:20.079Z,8.02
2022-12-25T07:21:47.261Z,7.99
2022-12-25T07:24:56.387Z,7.99
2022-12-25T07:27:28.290Z,8.00
2022-12-25T07:29:54.754Z,8.02
2022-12-25T07:32:21.222Z,8.03
2022-12-25T07:34:47.652Z,8.05
2022-12-25T07:37:14.049Z,8.07
2022-12-25T07:39:40.732Z,8.09
2022-12-25T07:42:07.456Z,8.07
2022-12-25T07:44:33.857Z,8.06
2022-12-25T07:47:00.341Z,8.07
2022-12-25T07:49:26.768Z,8.09
2022-12-25T07:51:53.152Z,8.07
2022-12-25T07:54:22.765Z,8.09
2022-12-25T07:56:56.059Z,8.12
2022-12-25T07:59:22.625Z,8.13
2022-12-25T08:01:50.378Z,8.15
2022-12-25T08:04:17.183Z,8.18
2022-12-25T08:06:43.585Z,8.21
2022-12-25T08:09:12.799Z,8.18
2022-12-25T08:11:44.005Z,8.25
2022-12-25T08:14:10.419Z,8.23
2022-12-25T08:16:41.349Z,8.17
2022-12-25T08:19:09.341Z,8.15
2022-12-25T08:21:36.152Z,8.15
2022-12-25T08:24:03.220Z,8.17
2022-12-25T08:26:29.876Z,8.20
2022-12-25T08:28:56.429Z,8.27
2022-12-25T08:31:25.916Z,8.28
2022-12-25T08:33:56.058Z,8.27
2022-12-25T08:36:23.457Z,8.29
2022-12-25T08:38:50.255Z,8.29
2022-12-25T08:41:17.719Z,8.31
2022-12-25T08:43:44.528Z,8.30
2022-12-25T08:46:11.397Z,8.38
2022-12-25T08:48:38.263Z,8.49
2022-12-25T08:51:08.116Z,8.50
2022-12-25T08:53:34.525Z,8.51
2022-12-25T08:56:04.377Z,8.51
2022-12-25T08:58:31.193Z,8.48
2022-12-25T09:00:57.708Z,8.48
2022-12-25T09:03:35.399Z,8.46
2022-12-25T09:06:10.797Z,8.44
2022-12-25T09:08:41.117Z,8.48
2022-12-25T09:11:14.477Z,8.48
2022-12-25T09:13:41.055Z,8.50
2022-12-25T09:16:09.925Z,8.53
2022-12-25T09:18:36.674Z,8.62
2022-12-25T09:21:06.635Z,8.63
2022-12-25T09:23:34.229Z,8.61
2022-12-25T09:26:02.919Z,8.68
2022-12-25T09:28:29.352Z,8.70
2022-12-25T09:30:57.527Z,8.72
2022-12-25T09:33:24.353Z,8.72
2022-12-25T09:35:54.477Z,8.74
2022-12-25T09:38:21.128Z,8.76
2022-12-25T09:40:47.683Z,8.81
2022-12-25T09:43:18.820Z,8.82
2022-12-25T09:45:45.529Z,8.86
2022-12-25T09:48:16.246Z,8.90
2022-12-25T09:51:13.106Z,8.83
2022-12-25T09:53:45.483Z,8.87
2022-12-25T09:56:16.776Z,8.95
2022-12-25T09:58:43.555Z,8.95
2022-12-25T10:01:25.662Z,8.98
2022-12-25T10:03:54.922Z,9.01
2022-12-25T10:06:31.983Z,9.14
2022-12-25T10:09:49.437Z,9.19
2022-12-25T10:12:30.940Z,9.25
2022-12-25T10:15:19.457Z,9.22
2022-12-25T10:18:08.601Z,9.26
2022-12-25T10:20:56.583Z,9.28
2022-12-25T10:23:27.881Z,9.31
2022-12-25T10:25:55.280Z,9.32
2022-12-25T10:28:29.825Z,9.31
2022-12-25T10:31:01.879Z,9.32
2022-12-25T10:33:28.453Z,9.38
2022-12-25T10:35:54.931Z,9.37
2022-12-25T10:38:21.356Z,9.36
2022-12-25T10:41:05.174Z,9.41
2022-12-25T10:43:43.061Z,9.43
2022-12-25T10:46:12.437Z,9.47
2022-12-25T10:48:54.432Z,9.49
2022-12-25T10:51:29.801Z,9.49
2022-12-25T10:53:56.844Z,9.47
2022-12-25T10:56:23.769Z,9.45
2022-12-25T10:58:50.467Z,9.46
2022-12-25T11:01:17.173Z,9.48
2022-12-25T11:03:52.219Z,9.50
2022-12-25T11:06:23.935Z,9.49
2022-12-25T11:08:56.670Z,9.53
2022-12-25T11:11:24.122Z,9.58
2022-12-25T11:13:57.647Z,9.59
2022-12-25T11:16:40.071Z,9.55
2022-12-25T11:19:25.148Z,9.53
2022-12-25T11:21:54.201Z,9.54
2022-12-25T11:24:22.600Z,9.56
2022-12-25T11:27:20.203Z,9.55
2022-12-25T11:29:50.562Z,9.55
2022-12-25T11:32:41.693Z,9.56
2022-12-25T11:35:14.778Z,9.60
2022-12-25T11:37:54.084Z,9.55
2022-12-25T11:40:35.554Z,9.56
2022-12-25T11:43:12.922Z,9.56
2022-12-25T11:45:46.277Z,9.58
2022-12-25T11:48:24.982Z,9.61
2022-12-25T11:50:55.756Z,9.60
2022-12-25T11:53:32.321Z,9.63
2022-12-25T11:56:06.088Z,9.69
2022-12-25T11:58:47.764Z,9.72
2022-12-25T12:01:35.369Z,9.76
2022-12-25T12:04:07.087Z,9.77
2022-12-25T12:07:16.975Z,9.72
2022-12-25T12:09:55.585Z,9.70
2022-12-25T12:13:01.140Z,9.69
2022-12-25T12:15:35.155Z,9.70
2022-12-25T12:18:27.956Z,9.71
2022-12-25T12:21:03.350Z,9.72
2022-12-25T12:23:33.239Z,9.77
2022-12-25T12:26:00.440Z,9.77
2022-12-25T12:28:32.707Z,9.77
2022-12-25T12:31:05.633Z,9.76
2022-12-25T12:33:38.899Z,9.74
2022-12-25T12:36:06.642Z,9.74
2022-12-25T12:38:35.083Z,9.71
2022-12-25T12:41:04.010Z,9.70
2022-12-25T12:43:32.460Z,9.69
2022-12-25T12:46:08.276Z,9.71
2022-12-25T12:48:41.053Z,9.73
2022-12-25T12:51:13.537Z,9.72
2022-12-25T12:53:45.358Z,9.72
2022-12-25T12:56:14.891Z,9.74
2022-12-25T12:58:50.025Z,9.73
2022-12-25T13:01:35.100Z,9.73
2022-12-25T13:04:39.247Z,9.76
2022-12-25T13:07:20.313Z,9.77
2022-12-25T13:09:52.530Z,9.78
2022-12-25T13:12:20.393Z,9.77
2022-12-25T13:14:48.081Z,9.78
2022-12-25T13:17:18.753Z,9.77
2022-12-25T13:19:46.217Z,9.74
2022-12-25T13:22:30.402Z,9.71
2022-12-25T13:25:03.045Z,9.66
2022-12-25T13:27:31.840Z,9.63
2022-12-25T13:29:58.924Z,9.65
2022-12-25T13:32:31.661Z,9.69
2022-12-25T13:34:59.400Z,9.70
2022-12-25T13:37:28.485Z,9.65
2022-12-25T13:39:57.583Z,9.63
2022-12-25T13:42:27.688Z,9.62
2022-12-25T13:44:58.331Z,9.63
2022-12-25T13:47:48.694Z,9.68
2022-12-25T13:50:23.734Z,9.66
2022-12-25T13:52:51.725Z,9.62
2022-12-25T13:55:24.453Z,9.60
2022-12-25T13:57:56.235Z,9.61
2022-12-25T14:00:25.752Z,9.61
2022-12-25T14:02:53.331Z,9.64
2022-12-25T14:05:27.389Z,9.64
2022-12-25T14:07:56.028Z,9.62
2022-12-25T14:10:26.101Z,9.64
2022-12-25T14:12:54.602Z,9.65
2022-12-25T14:15:23.235Z,9.64
2022-12-25T14:17:51.126Z,9.65
2022-12-25T14:21:04.337Z,9.62
2022-12-25T14:23:40.436Z,9.64
2022-12-25T14:26:07.310Z,9.67
2022-12-25T14:28:34.414Z,9.64
2022-12-25T14:31:02.058Z,9.65
2022-12-25T14:33:38.385Z,9.65
2022-12-25T14:36:06.966Z,9.56
2022-12-25T14:38:35.190Z,9.55
2022-12-25T14:41:22.601Z,9.53
2022-12-25T14:43:55.339Z,9.50
2022-12-25T14:46:24.659Z,9.53
2022-12-25T14:49:07.492Z,9.56
2022-12-25T14:51:38.605Z,9.50
2022-12-25T14:54:22.087Z,9.43
2022-12-25T14:56:50.914Z,9.45
2022-12-25T14:59:20.406Z,9.49
2022-12-25T15:01:52.206Z,9.51
2022-12-25T15:04:22.196Z,9.50
2022-12-25T15:07:00.475Z,9.48
2022-12-25T15:09:29.801Z,9.47
2022-12-25T15:11:56.589Z,9.47
2022-12-25T15:14:24.192Z,9.47
2022-12-25T15:16:53.757Z,9.47
2022-12-25T15:19:37.656Z,9.46
2022-12-25T15:22:09.259Z,9.42
2022-12-25T15:24:35.702Z,9.42
2022-12-25T15:27:02.221Z,9.42
2022-12-25T15:30:07.948Z,9.43
2022-12-25T15:32:19.017Z,9.44
2022-12-25T15:34:47.064Z,9.43
2022-12-25T15:37:14.493Z,9.43
2022-12-25T15:39:41.151Z,9.40
2022-12-25T15:42:16.844Z,9.38
2022-12-25T15:44:44.653Z,9.38
2022-12-25T15:47:15.994Z,9.37
2022-12-25T15:49:42.958Z,9.37
2022-12-25T15:52:14.261Z,9.35
2022-12-25T15:54:40.798Z,9.34
2022-12-25T15:57:16.600Z,9.30
2022-12-25T15:59:43.144Z,9.27
2022-12-25T16:02:15.844Z,9.28
2022-12-25T16:04:42.689Z,9.30
2022-12-25T16:07:17.474Z,9.31
2022-12-25T16:09:44.286Z,9.29
2022-12-25T16:12:11.172Z,9.28
2022-12-25T16:14:37.953Z,9.29
2022-12-25T16:17:04.809Z,9.27
2022-12-25T16:19:31.758Z,9.26
2022-12-25T16:21:58.303Z,9.27
2022-12-25T16:24:24.831Z,9.29
2022-12-25T16:26:51.277Z,9.31
2022-12-25T16:29:17.749Z,9.31
2022-12-25T16:31:44.276Z,9.25
2022-12-25T16:34:10.755Z,9.27
2022-12-25T16:36:37.369Z,9.28
2022-12-25T16:39:04.793Z,9.27
2022-12-25T16:41:31.272Z,9.24
2022-12-25T16:43:57.692Z,9.20
2022-12-25T16:46:24.336Z,9.20
2022-12-25T16:48:50.748Z,9.20
2022-12-25T16:51:19.883Z,9.20
2022-12-25T16:53:46.933Z,9.22
2022-12-25T16:56:16.668Z,9.21
2022-12-25T16:58:46.522Z,9.17
2022-12-25T17:01:19.586Z,9.17
2022-12-25T17:03:47.209Z,9.17
2022-12-25T17:06:31.491Z,9.16
2022-12-25T17:09:00.151Z,9.15
2022-12-25T17:11:29.728Z,9.19
2022-12-25T17:13:57.316Z,9.16
2022-12-25T17:16:27.227Z,9.15
2022-12-25T17:18:55.248Z,9.13
2022-12-25T17:21:22.883Z,9.11
2022-12-25T17:23:49.436Z,9.09
2022-12-25T17:26:16.312Z,9.10
2022-12-25T17:28:42.759Z,9.11
2022-12-25T17:31:11.707Z,9.12
2022-12-25T17:33:40.036Z,9.11
2022-12-25T17:36:10.016Z,9.12
2022-12-25T17:38:37.272Z,9.10
2022-12-25T17:41:06.505Z,9.09
2022-12-25T17:43:34.353Z,9.07
2022-12-25T17:46:08.845Z,9.07
2022-12-25T17:48:36.227Z,9.05
2022-12-25T17:51:04.849Z,9.05
2022-12-25T17:53:31.697Z,9.05
2022-12-25T17:55:58.978Z,9.06
2022-12-25T17:58:27.035Z,9.07
2022-12-25T18:00:54.132Z,9.06
2022-12-25T18:03:21.406Z,9.03
2022-12-25T18:05:48.293Z,9.02
2022-12-25T18:08:15.284Z,9.03
2022-12-25T18:10:43.847Z,9.01
2022-12-25T18:13:11.610Z,8.99
2022-12-25T18:15:40.248Z,9.00
2022-12-25T18:18:07.777Z,9.05
2022-12-25T18:20:39.884Z,9.07
2022-12-25T18:23:07.690Z,9.10
2022-12-25T18:25:34.383Z,9.04
2022-12-25T18:28:02.687Z,9.02
2022-12-25T18:30:29.515Z,9.02
2022-12-25T18:32:55.942Z,8.98
2022-12-25T18:35:22.576Z,8.97
2022-12-25T18:37:49.104Z,8.98
2022-12-25T18:40:15.663Z,8.95
2022-12-25T18:42:43.223Z,8.94
2022-12-25T18:45:12.742Z,8.94
2022-12-25T18:47:39.177Z,8.92
2022-12-25T18:50:07.085Z,8.93
2022-12-25T18:52:47.438Z,8.90
2022-12-25T18:55:16.910Z,8.89
2022-12-25T18:57:43.340Z,8.91
2022-12-25T19:00:10.201Z,8.92
2022-12-25T19:02:36.720Z,8.91
2022-12-25T19:05:03.540Z,8.92
2022-12-25T19:07:29.943Z,8.94
2022-12-25T19:09:56.342Z,8.94
2022-12-25T19:12:23.159Z,8.87
2022-12-25T19:14:50.596Z,8.88
2022-12-25T19:17:17.874Z,8.88
2022-12-25T19:19:44.499Z,8.89
2022-12-25T19:22:10.984Z,8.91
2022-12-25T19:24:37.574Z,8.92
2022-12-25T19:27:04.575Z,8.91
2022-12-25T19:29:32.138Z,8.91
2022-12-25T19:31:58.952Z,8.91
2022-12-25T19:34:25.537Z,8.87
2022-12-25T19:36:52.128Z,8.86
2022-12-25T19:39:19.155Z,8.86
2022-12-25T19:41:45.620Z,8.86
2022-12-25T19:44:12.153Z,8.85
2022-12-25T19:46:40.728Z,8.84
2022-12-25T19:49:11.404Z,8.86
2022-12-25T19:51:43.486Z,8.84
2022-12-25T19:54:15.679Z,8.83
2022-12-25T19:56:42.637Z,8.84
2022-12-25T19:59:11.877Z,8.84
2022-12-25T20:01:39.064Z,8.83
2022-12-25T20:04:08.657Z,8.82
2022-12-25T20:06:38.147Z,8.81
2022-12-25T20:09:11.376Z,8.77
2022-12-25T20:11:38.389Z,8.79
2022-12-25T20:14:06.604Z,8.78
2022-12-25T20:16:35.861Z,8.74
2022-12-25T20:19:02.581Z,8.75
2022-12-25T20:21:29.941Z,8.77
2022-12-25T20:23:57.135Z,8.81
2022-12-25T20:26:26.315Z,8.81
2022-12-25T20:28:52.991Z,8.79
2022-12-25T20:31:27.218Z,8.78
2022-12-25T20:33:55.223Z,8.73
2022-12-25T20:36:21.976Z,8.73
2022-12-25T20:38:48.890Z,8.74
2022-12-25T20:41:28.081Z,8.75
2022-12-25T20:43:56.257Z,8.75
2022-12-25T20:46:23.203Z,8.78
2022-12-25T20:48:49.742Z,8.79
2022-12-25T20:51:18.496Z,8.75
2022-12-25T20:53:45.936Z,8.75
2022-12-25T20:56:14.212Z,8.75
2022-12-25T20:58:41.014Z,8.73
2022-12-25T21:01:11.419Z,8.75
2022-12-25T21:03:38.640Z,8.73
2022-12-25T21:06:06.213Z,8.74
2022-12-25T21:08:32.773Z,8.73
2022-12-25T21:11:01.032Z,8.76
2022-12-25T21:13:33.676Z,8.78
2022-12-25T21:16:00.392Z,8.76
2022-12-25T21:18:28.406Z,8.70
2022-12-25T21:20:59.021Z,8.73
2022-12-25T21:23:26.728Z,8.71
2022-12-25T21:25:54.361Z,8.74
2022-12-25T21:28:22.112Z,8.77
2022-12-25T21:30:48.591Z,8.79
2022-12-25T21:33:34.225Z,8.78
2022-12-25T21:36:11.369Z,8.81
2022-12-25T21:38:38.600Z,8.79
2022-12-25T21:41:07.657Z,8.77
2022-12-25T21:43:35.447Z,8.75
2022-12-25T21:46:03.977Z,8.73
2022-12-25T21:48:30.411Z,8.75
2022-12-25T21:51:23.489Z,8.76
2022-12-25T21:53:50.305Z,8.76
2022-12-25T21:56:17.098Z,8.78
2022-12-25T21:58:43.595Z,8.79
2022-12-25T22:01:11.644Z,8.81
2022-12-25T22:03:38.190Z,8.83
2022-12-25T22:06:23.502Z,8.81
2022-12-25T22:08:50.013Z,8.81
2022-12-25T22:11:35.110Z,8.82
2022-12-25T22:14:19.899Z,8.86
2022-12-25T22:17:25.856Z,8.85
2022-12-25T22:19:52.323Z,8.82
2022-12-25T22:22:21.525Z,8.78
2022-12-25T22:24:54.276Z,8.78
2022-12-25T22:27:21.683Z,8.78
2022-12-25T22:29:51.324Z,8.75
2022-12-25T22:32:18.500Z,8.76
2022-12-25T22:34:44.995Z,8.78
2022-12-25T22:37:16.174Z,8.76
2022-12-25T22:39:43.539Z,8.74
2022-12-25T22:42:10.491Z,8.72
2022-12-25T22:44:37.135Z,8.71
2022-12-25T22:47:04.253Z,8.68
2022-12-25T22:49:30.754Z,8.70
2022-12-25T22:51:57.595Z,8.71
2022-12-25T22:54:25.067Z,8.71
2022-12-25T22:56:53.205Z,8.73
2022-12-25T22:59:21.741Z,8.72
2022-12-25T23:01:49.237Z,8.74
2022-12-25T23:04:16.282Z,8.72
2022-12-25T23:06:43.923Z,8.58
2022-12-25T23:09:17.462Z,8.59
2022-12-25T23:11:46.920Z,8.62
2022-12-25T23:14:32.236Z,8.63
2022-12-25T23:16:59.451Z,8.64
2022-12-25T23:19:44.679Z,8.66
2022-12-25T23:22:30.967Z,8.68
2022-12-25T23:25:17.354Z,8.67
2022-12-25T23:27:45.444Z,8.72
2022-12-25T23:30:14.660Z,8.71
2022-12-25T23:32:42.514Z,8.71
2022-12-25T23:35:09.380Z,8.71
2022-12-25T23:37:35.777Z,8.69
2022-12-25T23:40:02.295Z,8.71
2022-12-25T23:42:28.731Z,8.70
2022-12-25T23:44:55.173Z,8.69
2022-12-25T23:47:22.637Z,8.68
2022-12-25T23:49:49.116Z,8.72
2022-12-25T23:52:15.539Z,8.75
2022-12-25T23:54:41.936Z,8.72
2022-12-25T23:57:08.470Z,8.65
2022-12-25T23:59:34.906Z,8.66
